Flight Track Log - Related Links

Times and Time Zones

All times are in EDT time to prevent confusion due to time zone crossing. See the SKW6345 flight status page for this flight to view local times or setup timezone preferences in your user account.

Time Position Orientation Groundspeed Altitude Reporting Facility
EDT Latitude Longitude Course Direction KTS MPH feet Rate Location/Type
Fri 08:40:08 PM 33.9167 -118.4500 139° Southeast 178 205 2,300  Level Southern California TRACON
Fri 08:41:08 PM 33.8667 -118.4833 209° Southwest 185 213 4,100 1,670 Climbing Southern California TRACON
Fri 08:42:03 PM 33.8167 -118.4833 180° South 187 215 5,500 1,537 Climbing Southern California TRACON
Fri 08:43:09 PM 33.7667 -118.4833 180° South 185 213 7,200 1,500 Climbing Southern California TRACON
Fri 08:44:03 PM 33.7333 -118.4333 129° Southeast 195 224 8,500 1,286 Climbing Southern California TRACON
Fri 08:44:19 PM 33.7200 -118.4358 189° South 194 223 8,700 380 Climbing Los Angeles Center
Fri 08:45:00 PM 33.6756 -118.1351 139° Southeast  Level Estimated
Fri 08:45:22 PM 33.6764 -118.3864 137° Southeast 222 255 9,000  Level Los Angeles Center
Fri 08:46:24 PM 33.6347 -118.3031 121° Southeast 242 278 9,000  Level Los Angeles Center
Fri 08:47:26 PM 33.5961 -118.2369 125° Southeast 243 280 9,000  Level Los Angeles Center
Fri 08:48:28 PM 33.5575 -118.1675 124° Southeast 248 285 9,000  Level Los Angeles Center
Fri 08:49:30 PM 33.5200 -118.1006 124° Southeast 245 282 9,000  Level Los Angeles Center
Fri 08:50:32 PM 33.4817 -118.0328 124° Southeast 246 283 9,000  Level Los Angeles Center
Fri 08:51:34 PM 33.4356 -117.9506 124° Southeast 248 285 9,000  Level Los Angeles Center
Fri 08:52:36 PM 33.3972 -117.8839 125° Southeast 246 283 9,000  Level Los Angeles Center
Fri 08:53:38 PM 33.3586 -117.8172 125° Southeast 245 282 9,000  Level Los Angeles Center
Fri 08:54:40 PM 33.3208 -117.7489 123° Southeast 246 283 9,000  Level Los Angeles Center
Fri 08:55:43 PM 33.2828 -117.6814 124° Southeast 246 283 9,000  Level Los Angeles Center
Fri 08:56:45 PM 33.2447 -117.6128 124° Southeast 248 285 9,000  Level Los Angeles Center
Fri 08:57:10 PM 33.2167 -117.5667 126° Southeast 246 283 9,000  Level Southern California TRACON
Fri 08:58:04 PM 33.1667 -117.5333 151° Southeast 244 281 9,000 -600 Level Southern California TRACON
Fri 08:59:10 PM 33.1000 -117.4833 148° Southeast 257 296 7,800 -1,065 Descending Southern California TRACON
Fri 08:59:51 PM 33.0678 -117.4558 144° Southeast 257 296 7,100 -466 Descending Los Angeles Center
Fri 09:00:53 PM 33.0081 -117.4053 145° Southeast 263 303 7,000 -48 Descending Los Angeles Center
Fri 09:01:55 PM 32.9561 -117.3547 141° Southeast 250 288 7,000  Level Los Angeles Center
Fri 09:02:10 PM 32.9333 -117.3333 142° Southeast 243 280 7,000  Level Southern California TRACON
Fri 09:03:10 PM 32.9000 -117.2667 121° Southeast 239 275 7,000  Level Southern California TRACON
Fri 09:04:11 PM 32.8500 -117.2000 132° Southeast 222 255 7,000  Level Southern California TRACON
Fri 09:05:11 PM 32.8167 -117.1500 128° Southeast 202 232 7,000  Level Southern California TRACON
Fri 09:06:11 PM 32.8000 -117.1000 112° Southeast 200 230 7,000  Level Southern California TRACON
Fri 09:07:11 PM 32.7833 -117.0333 107° East 199 229 7,000 -450 Level Southern California TRACON
Fri 09:08:11 PM 32.7833 -116.9667 90° East 196 226 6,100 -500 Descending Southern California TRACON
Fri 09:09:11 PM 32.7667 -116.9167 112° Southeast 192 221 6,000 -226 Descending Southern California TRACON
Fri 09:10:24 PM 32.7467 -116.8394 107° East 195 224 5,600 -489 Descending Los Angeles Center
Fri 09:11:26 PM 32.6939 -116.8475 187° South 194 223 4,900 -611 Descending Los Angeles Center
Fri 09:12:12 PM 32.6667 -116.8833 228° Southwest 185 213 4,500 -453 Descending Southern California TRACON
Fri 09:13:12 PM 32.6667 -116.9333 270° West 184 212 4,100 -600 Descending Southern California TRACON
Fri 09:14:12 PM 32.6833 -117.0000 287° West 191 220 3,300 -862 Descending Southern California TRACON
Fri 09:16:13 PM 32.7167 -117.1167 289° West 160 184 1,500 -910 Descending Southern California TRACON
Fri 09:16:37 PM 32.7197 -117.1306 285° West 162 186 1,100 -767 Descending Los Angeles Center
Fri 09:17:39 PM 32.7278 -117.1700 284° West 131 151 400 -435 Descending Los Angeles Center
Fri 09:18:41 PM 32.7361 -117.2092 284° West 129 148 200 -194 Descending Los Angeles Center

Login

Don't have an account? Register now (free) for customized features, flight alerts, and more!